sensor_id;sensor_type;location;lat;lon;timestamp;temperature;humidity
24384;DHT22;12504;52.870;8.798;2023-07-02T00:02:21;15.50;99.90
24384;DHT22;12504;52.870;8.798;2023-07-02T00:04:47;15.50;99.90
24384;DHT22;12504;52.870;8.798;2023-07-02T00:07:14;15.50;99.90
24384;DHT22;12504;52.870;8.798;2023-07-02T00:09:40;15.50;99.90
24384;DHT22;12504;52.870;8.798;2023-07-02T00:12:06;15.50;99.90
24384;DHT22;12504;52.870;8.798;2023-07-02T00:14:32;15.50;99.90
24384;DHT22;12504;52.870;8.798;2023-07-02T00:16:58;15.50;99.90
24384;DHT22;12504;52.870;8.798;2023-07-02T00:19:23;15.50;99.90
24384;DHT22;12504;52.870;8.798;2023-07-02T00:21:50;15.50;99.90
24384;DHT22;12504;52.870;8.798;2023-07-02T00:24:16;15.50;99.90
24384;DHT22;12504;52.870;8.798;2023-07-02T00:26:42;15.50;99.90
24384;DHT22;12504;52.870;8.798;2023-07-02T00:29:11;15.40;99.90
24384;DHT22;12504;52.870;8.798;2023-07-02T00:31:37;15.40;99.90
24384;DHT22;12504;52.870;8.798;2023-07-02T00:34:03;15.40;99.90
24384;DHT22;12504;52.870;8.798;2023-07-02T00:36:29;15.40;99.90
24384;DHT22;12504;52.870;8.798;2023-07-02T00:38:56;15.40;99.90
24384;DHT22;12504;52.870;8.798;2023-07-02T00:41:21;15.40;99.90
24384;DHT22;12504;52.870;8.798;2023-07-02T00:43:47;15.50;99.90
24384;DHT22;12504;52.870;8.798;2023-07-02T00:46:17;15.50;99.90
24384;DHT22;12504;52.870;8.798;2023-07-02T00:48:55;15.50;99.90
24384;DHT22;12504;52.870;8.798;2023-07-02T00:51:26;15.50;99.90
24384;DHT22;12504;52.870;8.798;2023-07-02T00:53:54;15.50;99.90
24384;DHT22;12504;52.870;8.798;2023-07-02T00:56:21;15.50;99.90
24384;DHT22;12504;52.870;8.798;2023-07-02T00:58:48;15.50;99.90
24384;DHT22;12504;52.870;8.798;2023-07-02T01:01:23;15.50;99.90
24384;DHT22;12504;52.870;8.798;2023-07-02T01:04:02;15.50;99.90
24384;DHT22;12504;52.870;8.798;2023-07-02T01:06:35;15.50;99.90
24384;DHT22;12504;52.870;8.798;2023-07-02T01:09:03;15.50;99.90
24384;DHT22;12504;52.870;8.798;2023-07-02T01:11:41;15.50;99.90
24384;DHT22;12504;52.870;8.798;2023-07-02T01:14:15;15.50;99.90
24384;DHT22;12504;52.870;8.798;2023-07-02T01:16:42;15.50;99.90
24384;DHT22;12504;52.870;8.798;2023-07-02T01:22:06;15.60;99.90
24384;DHT22;12504;52.870;8.798;2023-07-02T01:24:32;15.60;99.90
24384;DHT22;12504;52.870;8.798;2023-07-02T01:26:58;15.50;99.90
24384;DHT22;12504;52.870;8.798;2023-07-02T01:29:29;15.50;99.90
24384;DHT22;12504;52.870;8.798;2023-07-02T01:31:55;15.50;99.90
24384;DHT22;12504;52.870;8.798;2023-07-02T01:34:21;15.50;99.90
24384;DHT22;12504;52.870;8.798;2023-07-02T01:36:46;15.40;99.90
24384;DHT22;12504;52.870;8.798;2023-07-02T01:39:12;15.40;99.90
24384;DHT22;12504;52.870;8.798;2023-07-02T01:42:08;15.40;99.90
24384;DHT22;12504;52.870;8.798;2023-07-02T01:44:34;15.50;99.90
24384;DHT22;12504;52.870;8.798;2023-07-02T01:47:00;15.50;99.90
24384;DHT22;12504;52.870;8.798;2023-07-02T01:49:26;15.50;99.90
24384;DHT22;12504;52.870;8.798;2023-07-02T01:51:52;15.50;99.90
24384;DHT22;12504;52.870;8.798;2023-07-02T01:54:19;15.50;99.90
24384;DHT22;12504;52.870;8.798;2023-07-02T01:56:45;15.50;99.90
24384;DHT22;12504;52.870;8.798;2023-07-02T01:59:10;15.50;99.90
24384;DHT22;12504;52.870;8.798;2023-07-02T02:01:37;15.50;99.90
24384;DHT22;12504;52.870;8.798;2023-07-02T02:04:06;15.60;99.90
24384;DHT22;12504;52.870;8.798;2023-07-02T02:06:32;15.60;99.90
24384;DHT22;12504;52.870;8.798;2023-07-02T02:08:57;15.50;99.90
24384;DHT22;12504;52.870;8.798;2023-07-02T02:11:23;15.60;99.90
24384;DHT22;12504;52.870;8.798;2023-07-02T02:13:49;15.50;99.90
24384;DHT22;12504;52.870;8.798;2023-07-02T02:16:15;15.50;99.90
24384;DHT22;12504;52.870;8.798;2023-07-02T02:18:40;15.40;99.90
24384;DHT22;12504;52.870;8.798;2023-07-02T02:21:06;15.30;99.90
24384;DHT22;12504;52.870;8.798;2023-07-02T02:23:32;15.20;99.90
24384;DHT22;12504;52.870;8.798;2023-07-02T02:25:59;15.20;99.90
24384;DHT22;12504;52.870;8.798;2023-07-02T02:28:24;15.20;99.90
24384;DHT22;12504;52.870;8.798;2023-07-02T02:30:50;15.10;99.90
24384;DHT22;12504;52.870;8.798;2023-07-02T02:33:16;15.10;99.90
24384;DHT22;12504;52.870;8.798;2023-07-02T02:35:43;15.10;99.90
24384;DHT22;12504;52.870;8.798;2023-07-02T02:38:09;15.00;99.90
24384;DHT22;12504;52.870;8.798;2023-07-02T02:40:35;15.10;99.90
24384;DHT22;12504;52.870;8.798;2023-07-02T02:43:02;15.10;99.90
24384;DHT22;12504;52.870;8.798;2023-07-02T02:45:27;15.10;99.90
24384;DHT22;12504;52.870;8.798;2023-07-02T02:47:54;15.10;99.90
24384;DHT22;12504;52.870;8.798;2023-07-02T02:50:20;15.10;99.90
24384;DHT22;12504;52.870;8.798;2023-07-02T02:52:46;15.00;99.90
24384;DHT22;12504;52.870;8.798;2023-07-02T02:55:12;15.00;99.90
24384;DHT22;12504;52.870;8.798;2023-07-02T02:57:38;14.90;99.90
24384;DHT22;12504;52.870;8.798;2023-07-02T03:00:03;14.90;99.90
24384;DHT22;12504;52.870;8.798;2023-07-02T03:02:30;14.90;99.90
24384;DHT22;12504;52.870;8.798;2023-07-02T03:04:56;14.80;99.90
24384;DHT22;12504;52.870;8.798;2023-07-02T03:07:22;14.90;99.90
24384;DHT22;12504;52.870;8.798;2023-07-02T03:09:48;14.90;99.90
24384;DHT22;12504;52.870;8.798;2023-07-02T03:12:13;14.90;99.90
24384;DHT22;12504;52.870;8.798;2023-07-02T03:14:39;14.90;99.90
24384;DHT22;12504;52.870;8.798;2023-07-02T03:17:05;14.90;99.90
24384;DHT22;12504;52.870;8.798;2023-07-02T03:19:30;15.00;99.90
24384;DHT22;12504;52.870;8.798;2023-07-02T03:21:56;15.00;99.90
24384;DHT22;12504;52.870;8.798;2023-07-02T03:24:21;14.90;99.90
24384;DHT22;12504;52.870;8.798;2023-07-02T03:26:47;15.00;99.90
24384;DHT22;12504;52.870;8.798;2023-07-02T03:29:12;15.00;99.90
24384;DHT22;12504;52.870;8.798;2023-07-02T03:31:42;15.00;99.90
24384;DHT22;12504;52.870;8.798;2023-07-02T03:34:09;15.00;99.90
24384;DHT22;12504;52.870;8.798;2023-07-02T03:36:35;15.00;99.90
24384;DHT22;12504;52.870;8.798;2023-07-02T03:39:02;15.00;99.90
24384;DHT22;12504;52.870;8.798;2023-07-02T03:41:28;15.00;99.90
24384;DHT22;12504;52.870;8.798;2023-07-02T03:43:54;15.10;99.90
24384;DHT22;12504;52.870;8.798;2023-07-02T03:46:19;15.10;99.90
24384;DHT22;12504;52.870;8.798;2023-07-02T03:48:45;15.10;99.90
24384;DHT22;12504;52.870;8.798;2023-07-02T03:51:11;15.10;99.90
24384;DHT22;12504;52.870;8.798;2023-07-02T03:53:40;15.10;99.90
24384;DHT22;12504;52.870;8.798;2023-07-02T03:56:06;15.10;99.90
24384;DHT22;12504;52.870;8.798;2023-07-02T03:58:32;15.10;99.90
24384;DHT22;12504;52.870;8.798;2023-07-02T04:00:57;15.10;99.90
24384;DHT22;12504;52.870;8.798;2023-07-02T04:03:23;15.10;99.90
24384;DHT22;12504;52.870;8.798;2023-07-02T04:05:48;15.00;99.90
24384;DHT22;12504;52.870;8.798;2023-07-02T04:08:15;15.00;99.90
24384;DHT22;12504;52.870;8.798;2023-07-02T04:10:40;15.10;99.90
24384;DHT22;12504;52.870;8.798;2023-07-02T04:13:06;15.10;99.90
24384;DHT22;12504;52.870;8.798;2023-07-02T04:15:32;15.10;99.90
24384;DHT22;12504;52.870;8.798;2023-07-02T04:17:58;15.10;99.90
24384;DHT22;12504;52.870;8.798;2023-07-02T04:20:24;15.20;99.90
24384;DHT22;12504;52.870;8.798;2023-07-02T04:22:50;15.20;99.90
24384;DHT22;12504;52.870;8.798;2023-07-02T04:25:16;15.20;99.90
24384;DHT22;12504;52.870;8.798;2023-07-02T04:27:42;15.30;99.90
24384;DHT22;12504;52.870;8.798;2023-07-02T04:30:09;15.30;99.90
24384;DHT22;12504;52.870;8.798;2023-07-02T04:32:36;15.30;99.90
24384;DHT22;12504;52.870;8.798;2023-07-02T04:35:02;15.30;99.90
24384;DHT22;12504;52.870;8.798;2023-07-02T04:37:28;15.30;99.90
24384;DHT22;12504;52.870;8.798;2023-07-02T04:39:54;15.20;99.90
24384;DHT22;12504;52.870;8.798;2023-07-02T04:42:19;15.20;99.90
24384;DHT22;12504;52.870;8.798;2023-07-02T04:44:45;15.20;99.90
24384;DHT22;12504;52.870;8.798;2023-07-02T04:47:11;15.30;99.90
24384;DHT22;12504;52.870;8.798;2023-07-02T04:49:37;15.30;99.90
24384;DHT22;12504;52.870;8.798;2023-07-02T04:52:03;15.30;99.90
24384;DHT22;12504;52.870;8.798;2023-07-02T04:54:29;15.30;99.90
24384;DHT22;12504;52.870;8.798;2023-07-02T04:56:54;15.40;99.90
24384;DHT22;12504;52.870;8.798;2023-07-02T04:59:21;15.40;99.90
24384;DHT22;12504;52.870;8.798;2023-07-02T05:01:47;15.40;99.90
24384;DHT22;12504;52.870;8.798;2023-07-02T05:04:12;15.40;99.90
24384;DHT22;12504;52.870;8.798;2023-07-02T05:06:38;15.40;99.90
24384;DHT22;12504;52.870;8.798;2023-07-02T05:09:04;15.50;99.90
24384;DHT22;12504;52.870;8.798;2023-07-02T05:11:29;15.50;99.90
24384;DHT22;12504;52.870;8.798;2023-07-02T05:13:55;15.50;99.90
24384;DHT22;12504;52.870;8.798;2023-07-02T05:16:20;15.50;99.90
24384;DHT22;12504;52.870;8.798;2023-07-02T05:18:46;15.50;99.90
24384;DHT22;12504;52.870;8.798;2023-07-02T05:21:12;15.50;99.90
24384;DHT22;12504;52.870;8.798;2023-07-02T05:23:38;15.50;99.90
24384;DHT22;12504;52.870;8.798;2023-07-02T05:26:03;15.60;99.90
24384;DHT22;12504;52.870;8.798;2023-07-02T05:28:29;15.60;99.90
24384;DHT22;12504;52.870;8.798;2023-07-02T05:30:54;15.60;99.90
24384;DHT22;12504;52.870;8.798;2023-07-02T05:33:20;15.70;99.90
24384;DHT22;12504;52.870;8.798;2023-07-02T05:35:47;15.70;99.90
24384;DHT22;12504;52.870;8.798;2023-07-02T05:38:13;15.70;99.90
24384;DHT22;12504;52.870;8.798;2023-07-02T05:40:39;15.70;99.90
24384;DHT22;12504;52.870;8.798;2023-07-02T05:43:04;15.70;99.90
24384;DHT22;12504;52.870;8.798;2023-07-02T05:45:30;15.80;99.90
24384;DHT22;12504;52.870;8.798;2023-07-02T05:47:57;15.80;99.90
24384;DHT22;12504;52.870;8.798;2023-07-02T05:50:23;15.90;99.90
24384;DHT22;12504;52.870;8.798;2023-07-02T05:52:49;16.00;99.90
24384;DHT22;12504;52.870;8.798;2023-07-02T05:55:14;16.20;99.90
24384;DHT22;12504;52.870;8.798;2023-07-02T05:57:40;16.30;99.90
24384;DHT22;12504;52.870;8.798;2023-07-02T06:00:06;16.40;99.90
24384;DHT22;12504;52.870;8.798;2023-07-02T06:02:37;16.50;99.90
24384;DHT22;12504;52.870;8.798;2023-07-02T06:05:03;16.40;99.90
24384;DHT22;12504;52.870;8.798;2023-07-02T06:07:29;16.40;99.90
24384;DHT22;12504;52.870;8.798;2023-07-02T06:09:55;16.40;99.90
24384;DHT22;12504;52.870;8.798;2023-07-02T06:12:21;16.40;99.90
24384;DHT22;12504;52.870;8.798;2023-07-02T06:14:47;16.30;99.90
24384;DHT22;12504;52.870;8.798;2023-07-02T06:17:13;16.30;99.90
24384;DHT22;12504;52.870;8.798;2023-07-02T06:19:39;16.30;99.90
24384;DHT22;12504;52.870;8.798;2023-07-02T06:22:04;16.30;99.90
24384;DHT22;12504;52.870;8.798;2023-07-02T06:24:30;16.30;99.90
24384;DHT22;12504;52.870;8.798;2023-07-02T06:26:56;16.30;99.90
24384;DHT22;12504;52.870;8.798;2023-07-02T06:29:23;16.40;99.90
24384;DHT22;12504;52.870;8.798;2023-07-02T06:31:49;16.50;99.90
24384;DHT22;12504;52.870;8.798;2023-07-02T06:34:15;16.50;99.90
24384;DHT22;12504;52.870;8.798;2023-07-02T06:36:40;16.60;99.90
24384;DHT22;12504;52.870;8.798;2023-07-02T06:39:06;16.70;99.90
24384;DHT22;12504;52.870;8.798;2023-07-02T06:41:32;16.70;99.90
24384;DHT22;12504;52.870;8.798;2023-07-02T06:43:57;16.90;99.90
24384;DHT22;12504;52.870;8.798;2023-07-02T06:46:23;17.00;99.90
24384;DHT22;12504;52.870;8.798;2023-07-02T06:48:48;17.10;99.90
24384;DHT22;12504;52.870;8.798;2023-07-02T06:51:14;17.10;99.90
24384;DHT22;12504;52.870;8.798;2023-07-02T06:53:44;17.10;99.90
24384;DHT22;12504;52.870;8.798;2023-07-02T06:56:10;17.20;99.90
24384;DHT22;12504;52.870;8.798;2023-07-02T06:58:35;17.40;99.90
24384;DHT22;12504;52.870;8.798;2023-07-02T07:01:01;17.50;99.90
24384;DHT22;12504;52.870;8.798;2023-07-02T07:03:27;17.30;99.90
24384;DHT22;12504;52.870;8.798;2023-07-02T07:05:53;17.20;99.90
24384;DHT22;12504;52.870;8.798;2023-07-02T07:08:18;17.20;99.90
24384;DHT22;12504;52.870;8.798;2023-07-02T07:10:44;17.30;99.90
24384;DHT22;12504;52.870;8.798;2023-07-02T07:13:13;17.30;99.90
24384;DHT22;12504;52.870;8.798;2023-07-02T07:15:39;17.30;99.90
24384;DHT22;12504;52.870;8.798;2023-07-02T07:18:05;17.20;99.90
24384;DHT22;12504;52.870;8.798;2023-07-02T07:20:31;17.10;99.90
24384;DHT22;12504;52.870;8.798;2023-07-02T07:22:57;17.10;99.90
24384;DHT22;12504;52.870;8.798;2023-07-02T07:25:23;17.10;99.90
24384;DHT22;12504;52.870;8.798;2023-07-02T07:27:48;17.20;99.90
24384;DHT22;12504;52.870;8.798;2023-07-02T07:30:14;17.30;99.90
24384;DHT22;12504;52.870;8.798;2023-07-02T07:32:40;17.40;99.90
24384;DHT22;12504;52.870;8.798;2023-07-02T07:35:07;17.40;99.90
24384;DHT22;12504;52.870;8.798;2023-07-02T07:37:32;17.50;99.90
24384;DHT22;12504;52.870;8.798;2023-07-02T07:39:58;17.40;99.90
24384;DHT22;12504;52.870;8.798;2023-07-02T07:42:24;17.30;99.90
24384;DHT22;12504;52.870;8.798;2023-07-02T07:44:49;17.30;99.90
24384;DHT22;12504;52.870;8.798;2023-07-02T07:47:15;17.40;99.90
24384;DHT22;12504;52.870;8.798;2023-07-02T07:49:40;17.40;99.90
24384;DHT22;12504;52.870;8.798;2023-07-02T07:52:06;17.60;99.90
24384;DHT22;12504;52.870;8.798;2023-07-02T07:54:33;17.80;99.90
24384;DHT22;12504;52.870;8.798;2023-07-02T07:57:00;18.10;99.90
24384;DHT22;12504;52.870;8.798;2023-07-02T07:59:25;18.30;99.90
24384;DHT22;12504;52.870;8.798;2023-07-02T08:01:51;18.30;99.90
24384;DHT22;12504;52.870;8.798;2023-07-02T08:04:16;18.20;99.90
24384;DHT22;12504;52.870;8.798;2023-07-02T08:06:42;18.10;99.90
24384;DHT22;12504;52.870;8.798;2023-07-02T08:09:07;18.00;99.90
24384;DHT22;12504;52.870;8.798;2023-07-02T08:11:34;18.00;99.90
24384;DHT22;12504;52.870;8.798;2023-07-02T08:14:00;18.10;99.90
24384;DHT22;12504;52.870;8.798;2023-07-02T08:16:25;18.10;99.90
24384;DHT22;12504;52.870;8.798;2023-07-02T08:18:51;18.20;99.90
24384;DHT22;12504;52.870;8.798;2023-07-02T08:21:16;18.10;99.90
24384;DHT22;12504;52.870;8.798;2023-07-02T08:23:43;18.20;99.90
24384;DHT22;12504;52.870;8.798;2023-07-02T08:26:09;18.30;99.90
24384;DHT22;12504;52.870;8.798;2023-07-02T08:28:36;18.30;99.90
24384;DHT22;12504;52.870;8.798;2023-07-02T08:31:04;18.20;99.90
24384;DHT22;12504;52.870;8.798;2023-07-02T08:33:30;18.30;99.90
24384;DHT22;12504;52.870;8.798;2023-07-02T08:35:55;18.20;99.90
24384;DHT22;12504;52.870;8.798;2023-07-02T08:38:23;18.10;99.90
24384;DHT22;12504;52.870;8.798;2023-07-02T08:40:51;18.20;99.90
24384;DHT22;12504;52.870;8.798;2023-07-02T08:43:17;18.50;99.90
24384;DHT22;12504;52.870;8.798;2023-07-02T08:45:43;18.80;99.90
24384;DHT22;12504;52.870;8.798;2023-07-02T08:48:10;18.90;99.90
24384;DHT22;12504;52.870;8.798;2023-07-02T08:50:36;18.50;99.90
24384;DHT22;12504;52.870;8.798;2023-07-02T08:53:01;18.30;99.90
24384;DHT22;12504;52.870;8.798;2023-07-02T08:55:27;18.00;99.90
24384;DHT22;12504;52.870;8.798;2023-07-02T08:57:56;17.70;99.90
24384;DHT22;12504;52.870;8.798;2023-07-02T09:00:25;17.50;37.50
24384;DHT22;12504;52.870;8.798;2023-07-02T09:02:51;17.40;54.20
24384;DHT22;12504;52.870;8.798;2023-07-02T09:05:17;17.40;57.60
24384;DHT22;12504;52.870;8.798;2023-07-02T09:07:44;17.60;47.80
24384;DHT22;12504;52.870;8.798;2023-07-02T09:10:11;17.70;38.40
24384;DHT22;12504;52.870;8.798;2023-07-02T09:12:37;17.90;31.90
24384;DHT22;12504;52.870;8.798;2023-07-02T09:15:07;18.00;32.90
24384;DHT22;12504;52.870;8.798;2023-07-02T09:17:36;18.20;30.00
24384;DHT22;12504;52.870;8.798;2023-07-02T09:20:04;18.50;24.50
24384;DHT22;12504;52.870;8.798;2023-07-02T09:22:32;18.60;25.80
24384;DHT22;12504;52.870;8.798;2023-07-02T09:24:59;18.70;6.90
24384;DHT22;12504;52.870;8.798;2023-07-02T09:27:35;18.60;13.00
24384;DHT22;12504;52.870;8.798;2023-07-02T09:30:12;18.90;7.20
24384;DHT22;12504;52.870;8.798;2023-07-02T09:32:39;18.90;1.00
24384;DHT22;12504;52.870;8.798;2023-07-02T09:35:05;18.60;99.90
24384;DHT22;12504;52.870;8.798;2023-07-02T09:37:32;18.50;99.90
24384;DHT22;12504;52.870;8.798;2023-07-02T09:39:57;18.30;99.90
24384;DHT22;12504;52.870;8.798;2023-07-02T09:42:25;18.40;99.90
24384;DHT22;12504;52.870;8.798;2023-07-02T09:44:55;18.40;99.90
24384;DHT22;12504;52.870;8.798;2023-07-02T09:47:24;18.60;99.90
24384;DHT22;12504;52.870;8.798;2023-07-02T09:49:57;18.80;99.90
24384;DHT22;12504;52.870;8.798;2023-07-02T09:52:26;18.80;99.90
24384;DHT22;12504;52.870;8.798;2023-07-02T09:54:53;19.00;99.90
24384;DHT22;12504;52.870;8.798;2023-07-02T09:57:18;19.30;99.90
24384;DHT22;12504;52.870;8.798;2023-07-02T09:59:44;19.50;99.90
24384;DHT22;12504;52.870;8.798;2023-07-02T10:02:10;19.70;99.90
24384;DHT22;12504;52.870;8.798;2023-07-02T10:04:43;19.60;99.90
24384;DHT22;12504;52.870;8.798;2023-07-02T10:07:10;19.30;99.90
24384;DHT22;12504;52.870;8.798;2023-07-02T10:09:37;18.90;99.90
24384;DHT22;12504;52.870;8.798;2023-07-02T10:14:43;17.90;62.50
24384;DHT22;12504;52.870;8.798;2023-07-02T10:17:09;17.50;99.90
24384;DHT22;12504;52.870;8.798;2023-07-02T10:19:35;17.40;94.60
24384;DHT22;12504;52.870;8.798;2023-07-02T10:22:01;17.60;87.20
24384;DHT22;12504;52.870;8.798;2023-07-02T10:24:27;18.00;66.00
24384;DHT22;12504;52.870;8.798;2023-07-02T10:26:59;18.50;38.90
24384;DHT22;12504;52.870;8.798;2023-07-02T10:29:27;19.20;15.10
24384;DHT22;12504;52.870;8.798;2023-07-02T10:31:55;19.60;1.00
24384;DHT22;12504;52.870;8.798;2023-07-02T10:34:31;20.10;1.00
24384;DHT22;12504;52.870;8.798;2023-07-02T10:36:57;20.40;99.90
24384;DHT22;12504;52.870;8.798;2023-07-02T10:39:23;21.10;99.90
24384;DHT22;12504;52.870;8.798;2023-07-02T10:41:49;22.10;99.90
24384;DHT22;12504;52.870;8.798;2023-07-02T10:44:14;22.80;99.90
24384;DHT22;12504;52.870;8.798;2023-07-02T10:46:45;22.80;99.90
24384;DHT22;12504;52.870;8.798;2023-07-02T10:49:11;23.40;99.90
24384;DHT22;12504;52.870;8.798;2023-07-02T10:51:38;22.80;99.90
24384;DHT22;12504;52.870;8.798;2023-07-02T10:54:03;21.70;99.90
24384;DHT22;12504;52.870;8.798;2023-07-02T10:56:31;20.90;99.90
24384;DHT22;12504;52.870;8.798;2023-07-02T10:58:57;20.00;99.90
24384;DHT22;12504;52.870;8.798;2023-07-02T11:01:27;19.30;99.90
24384;DHT22;12504;52.870;8.798;2023-07-02T11:03:59;18.90;99.90
24384;DHT22;12504;52.870;8.798;2023-07-02T11:06:26;18.70;1.00
24384;DHT22;12504;52.870;8.798;2023-07-02T11:08:52;18.70;1.00
24384;DHT22;12504;52.870;8.798;2023-07-02T11:11:20;19.20;1.00
24384;DHT22;12504;52.870;8.798;2023-07-02T11:13:47;19.70;1.00
24384;DHT22;12504;52.870;8.798;2023-07-02T11:18:45;20.50;99.90
24384;DHT22;12504;52.870;8.798;2023-07-02T11:21:11;20.20;99.90
24384;DHT22;12504;52.870;8.798;2023-07-02T11:23:36;19.70;99.90
24384;DHT22;12504;52.870;8.798;2023-07-02T11:26:02;19.70;99.90
24384;DHT22;12504;52.870;8.798;2023-07-02T11:28:30;19.80;99.90
24384;DHT22;12504;52.870;8.798;2023-07-02T11:30:57;19.60;99.90
24384;DHT22;12504;52.870;8.798;2023-07-02T11:35:59;19.40;99.90
24384;DHT22;12504;52.870;8.798;2023-07-02T11:38:25;19.40;99.90
24384;DHT22;12504;52.870;8.798;2023-07-02T11:40:51;19.80;99.90
24384;DHT22;12504;52.870;8.798;2023-07-02T11:43:16;20.60;99.90
24384;DHT22;12504;52.870;8.798;2023-07-02T11:45:43;21.40;99.90
24384;DHT22;12504;52.870;8.798;2023-07-02T11:48:09;21.90;99.90
24384;DHT22;12504;52.870;8.798;2023-07-02T11:50:34;22.40;99.90
24384;DHT22;12504;52.870;8.798;2023-07-02T11:53:00;22.70;99.90
24384;DHT22;12504;52.870;8.798;2023-07-02T11:55:25;23.00;99.90
24384;DHT22;12504;52.870;8.798;2023-07-02T11:57:51;22.90;99.90
24384;DHT22;12504;52.870;8.798;2023-07-02T12:00:16;22.10;99.90
24384;DHT22;12504;52.870;8.798;2023-07-02T12:02:42;21.30;99.90
24384;DHT22;12504;52.870;8.798;2023-07-02T12:05:08;21.00;99.90
24384;DHT22;12504;52.870;8.798;2023-07-02T12:07:34;20.80;99.90
24384;DHT22;12504;52.870;8.798;2023-07-02T12:10:00;20.40;99.90
24384;DHT22;12504;52.870;8.798;2023-07-02T12:12:26;20.20;99.90
24384;DHT22;12504;52.870;8.798;2023-07-02T12:14:51;20.00;99.90
24384;DHT22;12504;52.870;8.798;2023-07-02T12:17:17;20.10;99.90
24384;DHT22;12504;52.870;8.798;2023-07-02T12:19:42;20.00;99.90
24384;DHT22;12504;52.870;8.798;2023-07-02T12:22:08;19.70;99.90
24384;DHT22;12504;52.870;8.798;2023-07-02T12:24:34;19.60;99.90
24384;DHT22;12504;52.870;8.798;2023-07-02T12:26:59;19.50;99.90
24384;DHT22;12504;52.870;8.798;2023-07-02T12:29:25;19.60;99.90
24384;DHT22;12504;52.870;8.798;2023-07-02T12:31:50;19.80;99.90
24384;DHT22;12504;52.870;8.798;2023-07-02T12:34:16;20.40;99.90
24384;DHT22;12504;52.870;8.798;2023-07-02T12:36:41;20.90;99.90
24384;DHT22;12504;52.870;8.798;2023-07-02T12:39:07;20.70;99.90
24384;DHT22;12504;52.870;8.798;2023-07-02T12:41:33;20.50;99.90
24384;DHT22;12504;52.870;8.798;2023-07-02T12:43:59;20.20;99.90
24384;DHT22;12504;52.870;8.798;2023-07-02T12:46:25;20.40;99.90
24384;DHT22;12504;52.870;8.798;2023-07-02T12:48:50;21.40;99.90
24384;DHT22;12504;52.870;8.798;2023-07-02T12:51:16;21.80;99.90
24384;DHT22;12504;52.870;8.798;2023-07-02T12:53:41;21.50;99.90
24384;DHT22;12504;52.870;8.798;2023-07-02T12:56:07;20.90;99.90
24384;DHT22;12504;52.870;8.798;2023-07-02T12:58:32;20.70;99.90
24384;DHT22;12504;52.870;8.798;2023-07-02T13:00:58;20.70;99.90
24384;DHT22;12504;52.870;8.798;2023-07-02T13:03:23;20.80;99.90
24384;DHT22;12504;52.870;8.798;2023-07-02T13:05:51;21.30;99.90
24384;DHT22;12504;52.870;8.798;2023-07-02T13:08:18;22.00;99.90
24384;DHT22;12504;52.870;8.798;2023-07-02T13:10:44;22.50;99.90
24384;DHT22;12504;52.870;8.798;2023-07-02T13:13:09;22.70;99.90
24384;DHT22;12504;52.870;8.798;2023-07-02T13:15:35;22.50;99.90
24384;DHT22;12504;52.870;8.798;2023-07-02T13:18:01;22.80;99.90
24384;DHT22;12504;52.870;8.798;2023-07-02T13:20:27;22.80;99.90
24384;DHT22;12504;52.870;8.798;2023-07-02T13:22:52;22.40;99.90
24384;DHT22;12504;52.870;8.798;2023-07-02T13:25:18;21.90;99.90
24384;DHT22;12504;52.870;8.798;2023-07-02T13:27:43;21.60;99.90
24384;DHT22;12504;52.870;8.798;2023-07-02T13:30:09;21.30;99.90
24384;DHT22;12504;52.870;8.798;2023-07-02T13:32:35;21.20;99.90
24384;DHT22;12504;52.870;8.798;2023-07-02T13:35:00;21.20;99.90
24384;DHT22;12504;52.870;8.798;2023-07-02T13:37:26;21.40;99.90
24384;DHT22;12504;52.870;8.798;2023-07-02T13:39:52;21.50;99.90
24384;DHT22;12504;52.870;8.798;2023-07-02T13:42:17;21.20;99.90
24384;DHT22;12504;52.870;8.798;2023-07-02T13:44:43;20.60;99.90
24384;DHT22;12504;52.870;8.798;2023-07-02T13:47:09;20.40;99.90
24384;DHT22;12504;52.870;8.798;2023-07-02T13:49:34;20.20;99.90
24384;DHT22;12504;52.870;8.798;2023-07-02T13:52:00;20.20;99.90
24384;DHT22;12504;52.870;8.798;2023-07-02T13:54:26;20.10;99.90
24384;DHT22;12504;52.870;8.798;2023-07-02T13:56:52;20.30;99.90
24384;DHT22;12504;52.870;8.798;2023-07-02T13:59:19;20.90;99.90
24384;DHT22;12504;52.870;8.798;2023-07-02T14:01:46;21.30;99.90
24384;DHT22;12504;52.870;8.798;2023-07-02T14:04:12;21.50;99.90
24384;DHT22;12504;52.870;8.798;2023-07-02T14:06:38;21.30;99.90
24384;DHT22;12504;52.870;8.798;2023-07-02T14:09:04;21.00;99.90
24384;DHT22;12504;52.870;8.798;2023-07-02T14:11:31;21.10;99.90
24384;DHT22;12504;52.870;8.798;2023-07-02T14:13:57;21.50;99.90
24384;DHT22;12504;52.870;8.798;2023-07-02T14:16:23;21.60;99.90
24384;DHT22;12504;52.870;8.798;2023-07-02T14:18:50;21.40;99.90
24384;DHT22;12504;52.870;8.798;2023-07-02T14:21:15;21.10;99.90
24384;DHT22;12504;52.870;8.798;2023-07-02T14:23:41;20.70;99.90
24384;DHT22;12504;52.870;8.798;2023-07-02T14:26:06;20.60;99.90
24384;DHT22;12504;52.870;8.798;2023-07-02T14:28:33;20.80;99.90
24384;DHT22;12504;52.870;8.798;2023-07-02T14:31:00;21.00;99.90
24384;DHT22;12504;52.870;8.798;2023-07-02T14:33:27;20.80;99.90
24384;DHT22;12504;52.870;8.798;2023-07-02T14:35:53;20.70;99.90
24384;DHT22;12504;52.870;8.798;2023-07-02T14:38:19;20.70;99.90
24384;DHT22;12504;52.870;8.798;2023-07-02T14:40:45;20.90;99.90
24384;DHT22;12504;52.870;8.798;2023-07-02T14:43:12;21.10;99.90
24384;DHT22;12504;52.870;8.798;2023-07-02T14:45:51;21.30;99.90
24384;DHT22;12504;52.870;8.798;2023-07-02T14:48:17;21.80;99.90
24384;DHT22;12504;52.870;8.798;2023-07-02T14:50:52;21.90;99.90
24384;DHT22;12504;52.870;8.798;2023-07-02T14:53:19;21.30;99.90
24384;DHT22;12504;52.870;8.798;2023-07-02T14:55:45;21.10;99.90
24384;DHT22;12504;52.870;8.798;2023-07-02T14:58:12;20.90;99.90
24384;DHT22;12504;52.870;8.798;2023-07-02T15:00:49;20.70;99.90
24384;DHT22;12504;52.870;8.798;2023-07-02T15:03:16;20.60;99.90
24384;DHT22;12504;52.870;8.798;2023-07-02T15:05:42;20.50;99.90
24384;DHT22;12504;52.870;8.798;2023-07-02T15:08:08;20.40;99.90
24384;DHT22;12504;52.870;8.798;2023-07-02T15:10:35;20.60;99.90
24384;DHT22;12504;52.870;8.798;2023-07-02T15:13:03;21.00;99.90
24384;DHT22;12504;52.870;8.798;2023-07-02T15:15:28;21.10;99.90
24384;DHT22;12504;52.870;8.798;2023-07-02T15:17:54;20.70;99.90
24384;DHT22;12504;52.870;8.798;2023-07-02T15:20:19;20.20;99.90
24384;DHT22;12504;52.870;8.798;2023-07-02T15:22:45;20.00;99.90
24384;DHT22;12504;52.870;8.798;2023-07-02T15:25:10;20.20;99.90
24384;DHT22;12504;52.870;8.798;2023-07-02T15:27:36;20.60;99.90
24384;DHT22;12504;52.870;8.798;2023-07-02T15:30:01;20.60;99.90
24384;DHT22;12504;52.870;8.798;2023-07-02T15:32:27;20.50;99.90
24384;DHT22;12504;52.870;8.798;2023-07-02T15:34:53;21.00;99.90
24384;DHT22;12504;52.870;8.798;2023-07-02T15:37:19;21.60;99.90